Archival Weather

NSFA McMurdo Sound

NSFA McMurdo Sound, Antarctica (NZCM)

Report from: Thursday, December 7, 2023 10:55 PM UTC
Current time: Wednesday, April 24, 2024 6:56 PM UTC

Current weather – Weather history – Daily summaries
Weather forecast

Temperature-2.4°C (27.7°F)
Dew point-8.9°C (16.0°F)
Winds Calm
Visibility6.2 mi. (10 km)
Clouds Sky clear
Altimeter29.19 in.Hg (988 mB)
Relative humidity61 %
Density altitude-4,602 ft. (-1,403 m)
Sea-level pressure108.9 kPa (1089 mB, 32.15 in.Hg)
Remarks Fully automated report
Automated weather observing station with precipitation discriminator
Flight conditions Visual Meteorological Conditions
Raw dataNZCM 072255Z AUTO 00000KT 9999 CLR M02/M09 A2919 RMK AO2 SLP888 T10241089
An error has occurred. This application may no longer respond until reloaded. Reload 🗙